createdAt,value
2022-08-10T00:02:21.372Z,27.10
2022-08-10T00:04:50.810Z,27.10
2022-08-10T00:07:20.237Z,26.89
2022-08-10T00:09:50.274Z,26.99
2022-08-10T00:12:21.063Z,26.96
2022-08-10T00:14:53.072Z,26.97
2022-08-10T00:17:22.496Z,26.93
2022-08-10T00:20:03.907Z,26.99
2022-08-10T00:22:38.063Z,26.85
2022-08-10T00:25:22.455Z,26.89
2022-08-10T00:28:03.032Z,26.94
2022-08-10T00:30:35.897Z,27.01
2022-08-10T00:33:05.331Z,27.05
2022-08-10T00:35:36.388Z,27.01
2022-08-10T00:38:05.809Z,26.98
2022-08-10T00:40:37.807Z,26.92
2022-08-10T00:43:07.677Z,26.88
2022-08-10T00:45:39.743Z,26.78
2022-08-10T00:48:09.449Z,26.78
2022-08-10T00:50:38.917Z,26.71
2022-08-10T00:53:08.364Z,26.69
2022-08-10T00:56:35.034Z,26.61
2022-08-10T00:58:27.251Z,26.53
2022-08-10T01:00:59.334Z,26.47
2022-08-10T01:04:54.625Z,26.43
2022-08-10T01:06:21.056Z,26.36
2022-08-10T01:08:52.537Z,26.36
2022-08-10T01:12:37.657Z,26.30
2022-08-10T01:14:19.588Z,26.23
2022-08-10T01:16:53.244Z,26.21
2022-08-10T01:19:26.360Z,26.16
2022-08-10T01:22:07.249Z,26.08
2022-08-10T01:24:42.335Z,26.02
2022-08-10T01:27:29.918Z,26.01
2022-08-10T01:30:04.828Z,26.04
2022-08-10T01:32:39.989Z,25.95
2022-08-10T01:35:14.552Z,25.92
2022-08-10T01:37:51.974Z,25.90
2022-08-10T01:40:25.785Z,25.88
2022-08-10T01:42:55.733Z,25.87
2022-08-10T01:45:45.320Z,25.82
2022-08-10T01:48:29.709Z,25.79
2022-08-10T01:51:01.500Z,25.73
2022-08-10T01:53:40.171Z,25.65
2022-08-10T01:56:11.836Z,25.53
2022-08-10T01:58:41.377Z,25.46
2022-08-10T02:01:17.193Z,25.45
2022-08-10T02:04:04.523Z,25.45
2022-08-10T02:06:36.839Z,25.41
2022-08-10T02:09:07.319Z,25.32
2022-08-10T02:12:06.211Z,25.25
2022-08-10T02:14:33.921Z,25.23
2022-08-10T02:17:07.680Z,25.21
2022-08-10T02:19:38.182Z,25.20
2022-08-10T02:22:35.254Z,25.16
2022-08-10T02:24:57.260Z,25.15
2022-08-10T02:27:27.929Z,25.08
2022-08-10T02:29:57.441Z,24.99
2022-08-10T02:32:36.328Z,24.97
2022-08-10T02:35:13.183Z,25.02
2022-08-10T02:37:51.860Z,24.92
2022-08-10T02:42:18.825Z,24.86
2022-08-10T02:45:29.935Z,24.83
2022-08-10T02:46:08.056Z,24.81
2022-08-10T02:48:42.086Z,24.79
2022-08-10T02:51:14.165Z,24.78
2022-08-10T02:53:55.053Z,24.67
2022-08-10T02:56:29.172Z,24.62
2022-08-10T02:59:00.966Z,24.60
2022-08-10T03:01:34.107Z,24.61
2022-08-10T03:04:07.874Z,24.60
2022-08-10T03:06:39.893Z,24.58
2022-08-10T03:09:10.097Z,24.57
2022-08-10T03:12:34.811Z,24.57
2022-08-10T03:14:29.419Z,24.52
2022-08-10T03:16:58.880Z,24.50
2022-08-10T03:20:33.545Z,24.45
2022-08-10T03:22:20.280Z,24.42
2022-08-10T03:24:49.720Z,24.41
2022-08-10T03:27:19.160Z,24.37
2022-08-10T03:30:28.234Z,24.33
2022-08-10T03:32:37.959Z,24.31
2022-08-10T03:35:10.841Z,24.30
2022-08-10T03:37:40.296Z,24.31
2022-08-10T03:40:11.140Z,24.23
2022-08-10T03:42:41.292Z,24.20
2022-08-10T03:45:11.006Z,24.16
2022-08-10T03:47:40.798Z,24.19
2022-08-10T03:50:45.749Z,24.07
2022-08-10T03:53:02.544Z,24.00
2022-08-10T03:56:28.743Z,23.98
2022-08-10T03:58:21.365Z,23.99
2022-08-10T04:00:51.633Z,23.96
2022-08-10T04:03:21.125Z,23.92
2022-08-10T04:05:53.152Z,23.89
2022-08-10T04:08:22.585Z,23.87
2022-08-10T04:10:52.205Z,23.84
2022-08-10T04:13:22.953Z,23.84
2022-08-10T04:15:52.367Z,23.83
2022-08-10T04:18:21.775Z,23.81
2022-08-10T04:20:56.043Z,23.80
2022-08-10T04:23:26.897Z,23.76
2022-08-10T04:25:56.319Z,23.77
2022-08-10T04:28:26.159Z,23.73
2022-08-10T04:30:55.865Z,23.70
2022-08-10T04:33:26.077Z,23.67
2022-08-10T04:35:58.090Z,23.67
2022-08-10T04:38:27.789Z,23.67
2022-08-10T04:40:57.220Z,23.68
2022-08-10T04:43:26.627Z,23.65
2022-08-10T04:45:56.061Z,23.67
2022-08-10T04:48:42.603Z,23.67
2022-08-10T04:51:19.783Z,23.64
2022-08-10T04:54:04.981Z,23.66
2022-08-10T04:56:37.800Z,23.71
2022-08-10T04:59:07.834Z,23.76
2022-08-10T05:02:13.452Z,23.81
2022-08-10T05:04:36.445Z,23.89
2022-08-10T05:07:16.773Z,23.91
2022-08-10T05:10:01.273Z,23.96
2022-08-10T05:12:36.531Z,23.88
2022-08-10T05:15:08.602Z,23.95
2022-08-10T05:17:38.216Z,23.95
2022-08-10T05:20:08.913Z,23.98
2022-08-10T05:22:41.965Z,24.07
2022-08-10T05:25:12.980Z,24.12
2022-08-10T05:27:42.243Z,24.26
2022-08-10T05:30:13.546Z,24.27
2022-08-10T05:32:56.870Z,24.32
2022-08-10T05:35:51.855Z,24.41
2022-08-10T05:38:21.359Z,24.43
2022-08-10T05:40:50.862Z,24.49
2022-08-10T05:43:20.958Z,24.59
2022-08-10T05:46:18.958Z,24.63
2022-08-10T05:48:55.869Z,24.69
2022-08-10T05:51:29.502Z,24.78
2022-08-10T05:54:06.773Z,24.88
2022-08-10T05:56:53.298Z,24.89
2022-08-10T06:00:10.978Z,24.96
2022-08-10T06:02:34.132Z,25.12
2022-08-10T06:05:10.001Z,25.18
2022-08-10T06:07:43.917Z,25.33
2022-08-10T06:10:31.242Z,25.42
2022-08-10T06:13:29.950Z,25.54
2022-08-10T06:16:03.895Z,25.77
2022-08-10T06:18:33.366Z,25.84
2022-08-10T06:21:03.252Z,25.96
2022-08-10T06:23:33.114Z,26.10
2022-08-10T06:26:11.712Z,26.24
2022-08-10T06:28:43.676Z,26.39
2022-08-10T06:31:30.764Z,26.54
2022-08-10T06:34:17.912Z,26.71
2022-08-10T06:36:47.382Z,26.82
2022-08-10T06:39:32.986Z,27.05
2022-08-10T06:42:16.822Z,27.24
2022-08-10T06:44:58.376Z,27.43
2022-08-10T06:47:29.623Z,27.64
2022-08-10T06:50:04.940Z,27.77
2022-08-10T06:52:38.933Z,28.05
2022-08-10T06:55:11.183Z,28.27
2022-08-10T06:57:43.356Z,28.34
2022-08-10T07:00:19.690Z,28.27
2022-08-10T07:02:51.842Z,28.39
2022-08-10T07:05:22.883Z,28.63
2022-08-10T07:07:53.315Z,28.80
2022-08-10T07:10:25.125Z,29.00
2022-08-10T07:13:13.064Z,28.78
2022-08-10T07:16:00.090Z,28.87
2022-08-10T07:18:30.176Z,28.98
2022-08-10T07:21:01.952Z,29.09
2022-08-10T07:23:57.975Z,28.96
2022-08-10T07:26:21.157Z,28.56
2022-08-10T07:28:53.937Z,28.73
2022-08-10T07:31:54.304Z,28.74
2022-08-10T07:34:13.841Z,28.96
2022-08-10T07:36:58.443Z,29.20
2022-08-10T07:39:57.843Z,29.09
2022-08-10T07:42:17.839Z,28.74
2022-08-10T07:44:50.563Z,28.88
2022-08-10T07:47:52.888Z,29.17
2022-08-10T07:50:14.842Z,29.32
2022-08-10T07:52:44.299Z,29.48
2022-08-10T07:55:14.462Z,29.42
2022-08-10T07:57:43.916Z,28.91
2022-08-10T08:00:17.056Z,28.95
2022-08-10T08:02:48.142Z,28.89
2022-08-10T08:05:51.863Z,29.29
2022-08-10T08:08:07.248Z,29.97
2022-08-10T08:10:36.675Z,30.49
2022-08-10T08:13:06.159Z,30.99
2022-08-10T08:16:17.455Z,30.79
2022-08-10T08:18:27.741Z,30.19
2022-08-10T08:20:58.225Z,30.02
2022-08-10T08:24:05.992Z,30.17
2022-08-10T08:26:17.072Z,30.74
2022-08-10T08:28:46.661Z,31.47
2022-08-10T08:31:19.324Z,31.95
2022-08-10T08:33:48.887Z,31.79
2022-08-10T08:36:19.381Z,31.98
2022-08-10T08:38:49.024Z,32.32
2022-08-10T08:41:29.049Z,32.30
2022-08-10T08:44:04.658Z,32.97
2022-08-10T08:46:58.795Z,33.21
2022-08-10T08:50:08.019Z,33.59
2022-08-10T08:52:46.978Z,33.96
2022-08-10T08:56:02.828Z,34.49
2022-08-10T08:58:23.558Z,33.95
2022-08-10T09:00:58.385Z,34.14
2022-08-10T09:03:49.383Z,34.66
2022-08-10T09:06:31.182Z,34.93
2022-08-10T09:09:22.703Z,35.16
2022-08-10T09:11:57.082Z,35.55
2022-08-10T09:14:28.435Z,35.77
2022-08-10T09:17:00.354Z,35.43
2022-08-10T09:19:37.246Z,34.92
2022-08-10T09:22:17.303Z,34.90
2022-08-10T09:24:49.568Z,34.28
2022-08-10T09:27:22.133Z,33.50
2022-08-10T09:29:56.427Z,32.36
2022-08-10T09:36:15.857Z,33.01
2022-08-10T09:36:28.349Z,33.30
2022-08-10T09:38:22.955Z,33.65
2022-08-10T09:40:59.526Z,33.87
2022-08-10T09:43:38.016Z,33.79
2022-08-10T09:46:12.127Z,33.71
2022-08-10T09:48:44.472Z,33.47
2022-08-10T09:51:44.272Z,34.05
2022-08-10T09:54:16.907Z,34.45
2022-08-10T09:56:50.725Z,34.39
2022-08-10T09:59:26.860Z,34.20
2022-08-10T10:02:24.668Z,34.52
2022-08-10T10:05:01.487Z,36.49
2022-08-10T10:07:33.518Z,39.21
2022-08-10T10:10:04.992Z,42.29
2022-08-10T10:12:39.172Z,44.72
2022-08-10T10:15:24.824Z,46.06
2022-08-10T10:18:24.980Z,47.59
2022-08-10T10:21:03.260Z,48.29
2022-08-10T10:24:05.370Z,48.76
2022-08-10T10:26:38.307Z,50.21
2022-08-10T10:29:37.401Z,50.38
2022-08-10T10:32:05.276Z,49.83
2022-08-10T10:34:38.312Z,49.39
2022-08-10T10:37:08.926Z,48.58
2022-08-10T10:39:42.696Z,46.99
2022-08-10T10:42:42.268Z,44.42
2022-08-10T10:45:11.644Z,41.71
2022-08-10T10:47:52.726Z,39.81
2022-08-10T10:50:24.701Z,38.70
2022-08-10T10:52:59.998Z,37.88
2022-08-10T10:56:13.603Z,36.16
2022-08-10T10:58:28.809Z,35.80
2022-08-10T11:01:01.382Z,35.96
2022-08-10T11:03:39.246Z,35.87
2022-08-10T11:06:13.079Z,35.46
2022-08-10T11:08:45.592Z,35.30
2022-08-10T11:12:01.310Z,35.00
2022-08-10T11:14:26.588Z,34.67
2022-08-10T11:17:02.654Z,34.54
2022-08-10T11:20:02.361Z,34.01
2022-08-10T11:22:30.730Z,34.08
2022-08-10T11:25:10.985Z,33.36
2022-08-10T11:27:48.923Z,34.06
2022-08-10T11:30:21.599Z,34.19
2022-08-10T11:33:01.222Z,34.27
2022-08-10T11:35:35.272Z,33.65
2022-08-10T11:38:32.957Z,33.42
2022-08-10T11:42:06.428Z,33.27
2022-08-10T11:44:06.575Z,33.30
2022-08-10T11:46:36.967Z,33.65
2022-08-10T11:49:09.868Z,33.93
2022-08-10T11:51:44.700Z,34.15
2022-08-10T11:54:19.676Z,33.52
2022-08-10T11:56:50.485Z,32.75
2022-08-10T11:59:37.347Z,32.42
2022-08-10T12:02:07.108Z,32.12
2022-08-10T12:04:36.775Z,32.25
2022-08-10T12:10:06.915Z,32.17
2022-08-10T12:10:10.529Z,32.58
2022-08-10T12:12:45.319Z,32.79
2022-08-10T12:15:19.628Z,32.85
2022-08-10T12:17:52.568Z,32.99
2022-08-10T12:20:27.792Z,32.97
2022-08-10T12:22:59.057Z,33.57
2022-08-10T12:25:55.565Z,33.37
2022-08-10T12:28:22.655Z,33.30
2022-08-10T12:31:14.813Z,33.08
2022-08-10T12:34:02.287Z,33.42
2022-08-10T12:36:36.511Z,33.51
2022-08-10T12:39:07.724Z,34.10
2022-08-10T12:41:43.878Z,34.13
2022-08-10T12:44:15.899Z,33.48
2022-08-10T12:46:52.556Z,33.12
2022-08-10T12:49:23.821Z,33.17
2022-08-10T12:51:55.945Z,33.34
2022-08-10T12:54:32.929Z,33.81
2022-08-10T12:57:03.496Z,33.61
2022-08-10T12:59:32.963Z,32.92
2022-08-10T13:02:16.854Z,33.16
2022-08-10T13:04:46.318Z,33.78
2022-08-10T13:08:25.880Z,34.04
2022-08-10T13:10:05.358Z,33.86
2022-08-10T13:12:40.392Z,34.25
2022-08-10T13:15:45.533Z,34.35
2022-08-10T13:18:06.674Z,33.93
2022-08-10T13:20:48.959Z,34.24
2022-08-10T13:23:20.351Z,34.52
2022-08-10T13:25:50.709Z,34.35
2022-08-10T13:28:35.964Z,34.19
2022-08-10T13:31:06.576Z,33.42
2022-08-10T13:34:39.449Z,33.00
2022-08-10T13:36:30.220Z,33.76
2022-08-10T13:38:59.909Z,33.68
2022-08-10T13:41:30.616Z,33.90
2022-08-10T13:44:01.501Z,34.56
2022-08-10T13:46:31.005Z,34.77
2022-08-10T13:49:03.126Z,34.80
2022-08-10T13:51:57.540Z,34.87
2022-08-10T13:54:22.000Z,34.51
2022-08-10T13:56:51.801Z,34.17
2022-08-10T13:59:21.421Z,33.87
2022-08-10T14:01:52.181Z,33.58
2022-08-10T14:04:24.284Z,33.70
2022-08-10T14:06:55.940Z,34.15
2022-08-10T14:09:31.550Z,34.06
2022-08-10T14:12:01.019Z,33.91
2022-08-10T14:14:30.856Z,33.80
2022-08-10T14:17:00.269Z,33.10
2022-08-10T14:19:33.735Z,33.19
2022-08-10T14:22:06.226Z,33.44
2022-08-10T14:24:35.775Z,33.55
2022-08-10T14:27:07.503Z,33.73
2022-08-10T14:29:44.205Z,34.01
2022-08-10T14:32:14.203Z,34.03
2022-08-10T14:36:22.309Z,33.18
2022-08-10T14:37:38.249Z,32.99
2022-08-10T14:40:09.236Z,33.32
2022-08-10T14:42:40.128Z,33.41
2022-08-10T14:45:21.303Z,32.81
2022-08-10T14:47:53.567Z,32.59
2022-08-10T14:50:33.695Z,32.54
2022-08-10T14:53:03.484Z,32.44
2022-08-10T14:55:58.304Z,32.86
2022-08-10T14:58:24.137Z,32.45
2022-08-10T15:00:53.704Z,32.35
2022-08-10T15:04:00.791Z,32.02
2022-08-10T15:06:18.049Z,31.93
2022-08-10T15:08:48.089Z,31.81
2022-08-10T15:12:14.886Z,32.42
2022-08-10T15:14:29.349Z,32.52
2022-08-10T15:16:57.742Z,32.37
2022-08-10T15:20:01.075Z,32.79
2022-08-10T15:22:37.044Z,32.75
2022-08-10T15:25:18.207Z,32.55
2022-08-10T15:27:54.786Z,32.38
2022-08-10T15:30:29.633Z,32.45
2022-08-10T15:33:12.015Z,32.68
2022-08-10T15:35:54.896Z,32.40
2022-08-10T15:38:34.905Z,32.69
2022-08-10T15:41:09.437Z,32.62
2022-08-10T15:43:44.761Z,32.36
2022-08-10T15:46:17.315Z,32.10
2022-08-10T15:48:48.004Z,32.24
2022-08-10T15:51:27.955Z,32.61
2022-08-10T15:54:03.902Z,32.25
2022-08-10T15:56:35.519Z,32.50
2022-08-10T15:59:08.473Z,32.60
2022-08-10T16:02:14.446Z,32.75
2022-08-10T16:04:32.697Z,32.64
2022-08-10T16:07:06.446Z,32.83
2022-08-10T16:10:23.380Z,32.78
2022-08-10T16:12:35.173Z,32.65
2022-08-10T16:15:08.925Z,33.14
2022-08-10T16:17:55.505Z,33.14
2022-08-10T16:20:31.211Z,33.42
2022-08-10T16:23:03.481Z,33.20
2022-08-10T16:25:48.552Z,33.13
2022-08-10T16:28:24.115Z,32.82
2022-08-10T16:30:56.008Z,32.98
2022-08-10T16:33:52.523Z,33.43
2022-08-10T16:36:18.538Z,34.02
2022-08-10T16:38:49.652Z,34.01
2022-08-10T16:42:03.063Z,33.49
2022-08-10T16:44:13.193Z,33.53
2022-08-10T16:46:44.756Z,33.62
2022-08-10T16:49:14.647Z,33.67
2022-08-10T16:51:44.089Z,33.46
2022-08-10T16:54:13.520Z,33.61
2022-08-10T16:56:49.301Z,33.54
2022-08-10T16:59:21.032Z,33.29
2022-08-10T17:01:54.613Z,33.43
2022-08-10T17:04:24.180Z,33.31
2022-08-10T17:06:56.620Z,33.21
2022-08-10T17:09:31.883Z,33.16
2022-08-10T17:12:10.502Z,33.12
2022-08-10T17:14:40.694Z,33.08
2022-08-10T17:17:11.944Z,33.16
2022-08-10T17:19:43.530Z,33.08
2022-08-10T17:22:14.461Z,32.94
2022-08-10T17:24:47.200Z,33.01
2022-08-10T17:28:04.050Z,32.93
2022-08-10T17:30:15.871Z,32.72
2022-08-10T17:32:59.357Z,32.57
2022-08-10T17:35:31.103Z,32.60
2022-08-10T17:38:03.411Z,32.73
2022-08-10T17:40:33.311Z,32.77
2022-08-10T17:43:05.370Z,32.73
2022-08-10T17:45:47.576Z,32.58
2022-08-10T17:48:19.022Z,32.65
2022-08-10T17:50:51.628Z,32.66
2022-08-10T17:53:23.207Z,32.57
2022-08-10T17:55:59.737Z,32.59
2022-08-10T17:58:31.812Z,32.51
2022-08-10T18:01:38.746Z,32.61
2022-08-10T18:03:54.321Z,32.50
2022-08-10T18:06:23.871Z,32.46
2022-08-10T18:08:55.545Z,32.46
2022-08-10T18:11:26.256Z,32.42
2022-08-10T18:14:05.634Z,32.54
2022-08-10T18:16:38.907Z,32.51
2022-08-10T18:19:13.968Z,32.39
2022-08-10T18:21:44.240Z,32.31
2022-08-10T18:24:18.200Z,32.24
2022-08-10T18:26:49.159Z,32.15
2022-08-10T18:29:23.900Z,32.07
2022-08-10T18:31:58.147Z,31.97
2022-08-10T18:34:27.839Z,31.90
2022-08-10T18:36:57.310Z,31.88
2022-08-10T18:39:30.099Z,31.80
2022-08-10T18:42:05.649Z,31.75
2022-08-10T18:44:39.620Z,31.70
2022-08-10T18:47:11.964Z,31.65
2022-08-10T18:49:44.104Z,31.60
2022-08-10T18:52:15.026Z,31.58
2022-08-10T18:54:46.702Z,31.49
2022-08-10T18:57:27.113Z,31.41
2022-08-10T19:00:09.511Z,31.33
2022-08-10T19:02:53.168Z,31.28
2022-08-10T19:05:32.142Z,30.78
2022-08-10T19:08:30.889Z,30.36
2022-08-10T19:11:04.825Z,30.30
2022-08-10T19:13:36.386Z,30.35
2022-08-10T19:16:15.092Z,30.65
2022-08-10T19:18:46.772Z,30.62
2022-08-10T19:21:17.162Z,30.59
2022-08-10T19:23:52.158Z,30.58
2022-08-10T19:26:41.684Z,30.45
2022-08-10T19:30:10.035Z,30.38
2022-08-10T19:32:26.790Z,30.36
2022-08-10T19:35:03.695Z,30.31
2022-08-10T19:37:37.467Z,30.27
2022-08-10T19:40:21.666Z,30.26
2022-08-10T19:43:10.722Z,30.24
2022-08-10T19:45:56.152Z,30.13
2022-08-10T19:48:38.572Z,30.11
2022-08-10T19:51:11.265Z,30.05
2022-08-10T19:53:44.481Z,30.00
2022-08-10T19:56:33.635Z,29.88
2022-08-10T19:59:06.740Z,29.64
2022-08-10T20:01:55.444Z,29.58
2022-08-10T20:04:31.905Z,29.58
2022-08-10T20:07:11.982Z,29.62
2022-08-10T20:09:45.111Z,29.59
2022-08-10T20:12:19.070Z,29.58
2022-08-10T20:14:50.673Z,29.58
2022-08-10T20:17:26.291Z,29.55
2022-08-10T20:20:01.343Z,29.48
2022-08-10T20:22:32.520Z,29.43
2022-08-10T20:25:06.699Z,29.41
2022-08-10T20:28:00.123Z,29.32
2022-08-10T20:30:29.883Z,29.33
2022-08-10T20:33:00.400Z,29.27
2022-08-10T20:35:35.200Z,29.31
2022-08-10T20:38:11.502Z,29.29
2022-08-10T20:40:44.247Z,29.30
2022-08-10T20:43:19.161Z,29.31
2022-08-10T20:46:07.529Z,29.27
2022-08-10T20:48:39.213Z,29.24
2022-08-10T20:51:17.444Z,29.19
2022-08-10T20:53:47.701Z,29.13
2022-08-10T20:56:19.904Z,29.08
2022-08-10T20:59:05.472Z,29.06
2022-08-10T21:02:06.092Z,29.01
2022-08-10T21:04:45.919Z,28.95
2022-08-10T21:08:00.670Z,28.91
2022-08-10T21:10:24.624Z,28.85
2022-08-10T21:13:00.865Z,28.87
2022-08-10T21:15:41.812Z,28.74
2022-08-10T21:18:22.411Z,28.70
2022-08-10T21:20:59.411Z,28.71
2022-08-10T21:23:32.233Z,28.68
2022-08-10T21:26:10.022Z,28.68
2022-08-10T21:28:44.766Z,28.72
2022-08-10T21:31:25.144Z,28.66
2022-08-10T21:34:01.849Z,28.63
2022-08-10T21:36:32.114Z,28.60
2022-08-10T21:39:09.969Z,28.54
2022-08-10T21:41:58.821Z,28.50
2022-08-10T21:44:49.959Z,28.50
2022-08-10T21:47:43.500Z,28.49
2022-08-10T21:50:39.588Z,28.42
2022-08-10T21:53:43.584Z,28.35
2022-08-10T21:56:33.735Z,28.29
2022-08-10T21:59:17.140Z,28.20
2022-08-10T22:02:01.988Z,28.17
2022-08-10T22:04:46.105Z,28.11
2022-08-10T22:07:28.052Z,28.11
2022-08-10T22:10:10.303Z,28.04
2022-08-10T22:12:56.299Z,28.04
2022-08-10T22:16:05.536Z,27.98
2022-08-10T22:18:53.685Z,27.96
2022-08-10T22:21:50.986Z,27.89
2022-08-10T22:24:37.353Z,27.85
2022-08-10T22:27:47.669Z,27.79
2022-08-10T22:30:34.646Z,27.67
2022-08-10T22:33:25.784Z,27.61
2022-08-10T22:36:11.962Z,27.51
2022-08-10T22:39:08.235Z,27.52
2022-08-10T22:41:57.395Z,27.45
2022-08-10T22:44:39.406Z,27.39
2022-08-10T22:47:23.961Z,27.33
2022-08-10T22:49:51.232Z,27.26
2022-08-10T22:52:22.603Z,27.24
2022-08-10T22:55:06.813Z,27.22
2022-08-10T22:57:48.768Z,27.15
2022-08-10T23:00:19.988Z,27.12
2022-08-10T23:03:07.717Z,27.07
2022-08-10T23:05:38.082Z,26.98
2022-08-10T23:08:12.484Z,26.94
2022-08-10T23:10:59.580Z,26.89
2022-08-10T23:13:36.481Z,26.88
2022-08-10T23:16:19.840Z,26.82
2022-08-10T23:19:06.040Z,26.80
2022-08-10T23:22:02.868Z,26.79
2022-08-10T23:24:30.204Z,26.72
2022-08-10T23:27:00.148Z,26.65
2022-08-10T23:29:44.705Z,26.55
2022-08-10T23:32:32.350Z,26.46
2022-08-10T23:36:30.596Z,26.43
2022-08-10T23:37:58.288Z,26.44
2022-08-10T23:40:27.732Z,26.43
2022-08-10T23:42:57.181Z,26.39
2022-08-10T23:45:28.935Z,26.33
2022-08-10T23:48:20.011Z,26.27
2022-08-10T23:50:59.496Z,26.25
2022-08-10T23:53:30.912Z,26.14
2022-08-10T23:56:06.823Z,26.11
2022-08-10T23:58:39.304Z,26.12
